Terminal Aerodrome Forecast
Issued by NWS

Home | Current Version | Previous Version | Text Only | Print | Product List | Glossary On
Versions: 1 2 3 4 5 6 7 8 9 10 11 12 13 14
000
FTUS45 KREV 252300
TAFMMH
TAF
KMMH 252323Z 2600/2624 34014G22KT P6SM SKC
     FM260100 28009KT P6SM SKC
     FM260400 VRB03KT P6SM SKC
     FM262000 23010KT P6SM FEW180
      AMD NOT SKED 2602/2614=

USA.gov is the U.S. government's official web portal to all federal, state and local government web resources and services.